createdAt,value
2017-09-23T00:00:23.657Z,13.49
2017-09-23T00:01:23.651Z,13.49
2017-09-23T00:02:23.649Z,13.44
2017-09-23T00:03:23.647Z,13.44
2017-09-23T00:04:23.338Z,13.27
2017-09-23T00:05:23.347Z,13.33
2017-09-23T00:06:23.105Z,13.27
2017-09-23T00:07:23.352Z,13.22
2017-09-23T00:08:23.509Z,13.2
2017-09-23T00:09:23.639Z,13.19
2017-09-23T00:10:23.644Z,13.18
2017-09-23T00:11:23.451Z,13.18
2017-09-23T00:12:23.402Z,13.19
2017-09-23T00:13:23.630Z,13.19
2017-09-23T00:14:23.627Z,13.18
2017-09-23T00:15:23.709Z,13.23
2017-09-23T00:16:23.019Z,13.23
2017-09-23T00:17:23.314Z,13.11
2017-09-23T00:18:23.620Z,13.03
2017-09-23T00:19:23.316Z,13.11
2017-09-23T00:20:23.423Z,13.08
2017-09-23T00:21:23.717Z,13
2017-09-23T00:22:23.614Z,12.98
2017-09-23T00:23:23.617Z,13.01
2017-09-23T00:24:23.298Z,13.01
2017-09-23T00:25:23.476Z,12.93
2017-09-23T00:26:23.605Z,12.9
2017-09-23T00:27:23.605Z,12.82
2017-09-23T00:28:23.354Z,12.83
2017-09-23T00:29:23.294Z,12.79
2017-09-23T00:30:24.882Z,12.75
2017-09-23T00:31:22.992Z,12.7
2017-09-23T00:32:22.991Z,12.73
2017-09-23T00:33:23.337Z,12.79
2017-09-23T00:34:23.394Z,12.86
2017-09-23T00:35:23.592Z,12.79
2017-09-23T00:36:23.714Z,12.83
2017-09-23T00:37:23.300Z,12.79
2017-09-23T00:38:23.592Z,12.79
2017-09-23T00:39:23.585Z,12.82
2017-09-23T00:40:23.694Z,12.82
2017-09-23T00:41:23.586Z,12.9
2017-09-23T00:42:23.586Z,12.82
2017-09-23T00:43:23.585Z,12.86
2017-09-23T00:44:23.263Z,12.87
2017-09-23T00:45:22.975Z,12.91
2017-09-23T00:46:23.257Z,12.86
2017-09-23T00:47:23.264Z,12.87
2017-09-23T00:48:23.568Z,12.79
2017-09-23T00:49:23.251Z,12.8
2017-09-23T00:50:23.556Z,12.82
2017-09-23T00:51:23.244Z,12.86
2017-09-23T00:52:23.245Z,12.98
2017-09-23T00:53:23.557Z,12.8
2017-09-23T00:54:23.242Z,12.94
2017-09-23T00:55:22.936Z,12.85
2017-09-23T00:56:23.543Z,12.9
2017-09-23T00:57:23.544Z,12.9
2017-09-23T00:58:23.232Z,12.93
2017-09-23T00:59:23.538Z,12.9
2017-09-23T01:00:26.832Z,12.9
2017-09-23T01:01:23.228Z,12.94
2017-09-23T01:02:23.225Z,12.94
2017-09-23T01:03:23.537Z,13.08
2017-09-23T01:04:23.218Z,12.98
2017-09-23T01:05:23.221Z,13
2017-09-23T01:06:23.537Z,12.98
2017-09-23T01:07:23.244Z,13
2017-09-23T01:08:23.539Z,13.01
2017-09-23T01:09:23.218Z,13.03
2017-09-23T01:10:23.515Z,13.01
2017-09-23T01:11:23.218Z,13.04
2017-09-23T01:12:23.207Z,13.01
2017-09-23T01:13:23.511Z,13.12
2017-09-23T01:14:22.900Z,13.12
2017-09-23T01:15:22.895Z,13.22
2017-09-23T01:16:23.212Z,13.2
2017-09-23T01:17:23.194Z,13.22
2017-09-23T01:18:23.507Z,13.18
2017-09-23T01:19:23.510Z,13.2
2017-09-23T01:20:23.211Z,13.18
2017-09-23T01:21:23.205Z,13.15
2017-09-23T01:22:23.193Z,13.18
2017-09-23T01:23:23.211Z,13.13
2017-09-23T01:24:23.496Z,13.11
2017-09-23T01:25:23.513Z,13.05
2017-09-23T01:26:23.487Z,13.08
2017-09-23T01:27:23.200Z,13
2017-09-23T01:28:23.477Z,13.03
2017-09-23T01:29:23.487Z,12.98
2017-09-23T01:30:23.494Z,13.03
2017-09-23T01:31:24.522Z,12.98
2017-09-23T01:32:23.166Z,12.91
2017-09-23T01:33:23.472Z,12.87
2017-09-23T01:34:23.172Z,12.82
2017-09-23T01:35:23.176Z,12.82
2017-09-23T01:36:23.152Z,12.8
2017-09-23T01:37:23.161Z,12.8
2017-09-23T01:38:23.480Z,12.79
2017-09-23T01:39:23.155Z,12.79
2017-09-23T01:40:23.555Z,12.67
2017-09-23T01:41:23.166Z,12.73
2017-09-23T01:42:23.153Z,12.75
2017-09-23T01:43:23.162Z,12.73
2017-09-23T01:44:23.467Z,12.68
2017-09-23T01:45:22.857Z,12.68
2017-09-23T01:46:23.500Z,12.72
2017-09-23T01:47:23.135Z,12.75
2017-09-23T01:48:23.445Z,12.7
2017-09-23T01:49:23.155Z,12.61
2017-09-23T01:50:23.228Z,12.58
2017-09-23T01:51:23.124Z,12.55
2017-09-23T01:52:23.431Z,12.62
2017-09-23T01:53:23.444Z,12.62
2017-09-23T01:54:23.111Z,12.64
2017-09-23T01:55:23.114Z,12.64
2017-09-23T01:56:23.425Z,12.6
2017-09-23T01:57:23.425Z,12.6
2017-09-23T01:58:23.111Z,12.57
2017-09-23T01:59:23.116Z,12.54
2017-09-23T02:00:23.430Z,12.6
2017-09-23T02:01:24.474Z,12.64
2017-09-23T02:02:23.431Z,12.54
2017-09-23T02:03:23.431Z,12.67
2017-09-23T02:04:23.115Z,12.6
2017-09-23T02:05:23.163Z,12.61
2017-09-23T02:06:23.400Z,12.6
2017-09-23T02:07:23.409Z,12.64
2017-09-23T02:08:23.422Z,12.67
2017-09-23T02:09:23.095Z,12.65
2017-09-23T02:10:22.822Z,12.7
2017-09-23T02:11:23.086Z,12.7
2017-09-23T02:12:23.404Z,12.68
2017-09-23T02:13:23.402Z,12.7
2017-09-23T02:14:23.404Z,12.72
2017-09-23T02:15:23.406Z,12.67
2017-09-23T02:16:23.073Z,12.61
2017-09-23T02:17:23.073Z,12.64
2017-09-23T02:18:23.372Z,12.54
2017-09-23T02:19:23.373Z,12.54
2017-09-23T02:20:23.122Z,12.5
2017-09-23T02:21:23.368Z,12.46
2017-09-23T02:22:23.370Z,12.49
2017-09-23T02:23:22.742Z,12.46
2017-09-23T02:24:23.365Z,12.54
2017-09-23T02:25:23.093Z,12.5
2017-09-23T02:26:23.357Z,12.5
2017-09-23T02:27:23.368Z,12.47
2017-09-23T02:28:23.042Z,12.5
2017-09-23T02:29:23.352Z,12.54
2017-09-23T02:30:23.352Z,12.47
2017-09-23T02:31:23.049Z,12.5
2017-09-23T02:32:23.048Z,12.55
2017-09-23T02:33:23.033Z,12.46
2017-09-23T02:34:23.346Z,12.53
2017-09-23T02:35:23.069Z,12.58
2017-09-23T02:36:23.045Z,12.61
2017-09-23T02:37:23.337Z,12.68
2017-09-23T02:38:23.358Z,12.6
2017-09-23T02:39:23.022Z,12.65
2017-09-23T02:40:23.088Z,12.64
2017-09-23T02:41:23.324Z,12.65
2017-09-23T02:42:23.017Z,12.65
2017-09-23T02:43:23.326Z,12.7
2017-09-23T02:44:23.017Z,12.65
2017-09-23T02:45:23.041Z,12.7
2017-09-23T02:46:23.004Z,12.65
2017-09-23T02:47:23.001Z,12.65
2017-09-23T02:48:23.005Z,12.62
2017-09-23T02:49:23.309Z,12.62
2017-09-23T02:50:23.318Z,12.7
2017-09-23T02:51:23.303Z,12.64
2017-09-23T02:52:23.305Z,12.58
2017-09-23T02:53:23.300Z,12.65
2017-09-23T02:54:23.301Z,12.61
2017-09-23T02:55:23.350Z,12.61
2017-09-23T02:56:22.981Z,12.53
2017-09-23T02:57:23.289Z,12.54
2017-09-23T02:58:23.288Z,12.5
2017-09-23T02:59:22.975Z,12.49
2017-09-23T03:00:22.693Z,12.36
2017-09-23T03:01:23.001Z,12.45
2017-09-23T03:02:26.781Z,12.36
2017-09-23T03:03:22.969Z,12.42
2017-09-23T03:04:22.967Z,12.35
2017-09-23T03:05:22.963Z,12.22
2017-09-23T03:06:23.280Z,12.37
2017-09-23T03:07:23.268Z,12.29
2017-09-23T03:08:23.267Z,12.37
2017-09-23T03:09:22.951Z,12.39
2017-09-23T03:10:23.262Z,12.36
2017-09-23T03:11:22.953Z,12.31
2017-09-23T03:12:23.257Z,12.32
2017-09-23T03:13:23.258Z,12.18
2017-09-23T03:14:22.943Z,12.31
2017-09-23T03:15:22.939Z,12.27
2017-09-23T03:16:22.633Z,12.24
2017-09-23T03:17:22.937Z,12.28
2017-09-23T03:18:22.927Z,12.28
2017-09-23T03:19:23.260Z,12.18
2017-09-23T03:20:22.931Z,12.15
2017-09-23T03:21:22.928Z,12.21
2017-09-23T03:22:23.229Z,12.21
2017-09-23T03:23:23.223Z,12.18
2017-09-23T03:24:23.225Z,12.24
2017-09-23T03:25:22.913Z,12.15
2017-09-23T03:26:22.610Z,12.21
2017-09-23T03:27:23.215Z,12.15
2017-09-23T03:28:22.911Z,12.15
2017-09-23T03:29:22.910Z,12.24
2017-09-23T03:30:23.244Z,12.21
2017-09-23T03:31:23.211Z,12.21
2017-09-23T03:32:23.208Z,12.32
2017-09-23T03:33:23.205Z,12.2
2017-09-23T03:34:23.199Z,12.2
2017-09-23T03:35:22.579Z,12.24
2017-09-23T03:36:23.204Z,12.24
2017-09-23T03:37:22.883Z,12.29
2017-09-23T03:38:22.877Z,12.18
2017-09-23T03:39:22.883Z,12.15
2017-09-23T03:40:22.940Z,12.17
2017-09-23T03:41:23.183Z,12.21
2017-09-23T03:42:22.874Z,12.12
2017-09-23T03:43:22.872Z,12.09
2017-09-23T03:44:23.180Z,12.09
2017-09-23T03:45:22.864Z,11.97
2017-09-23T03:46:22.878Z,12.02
2017-09-23T03:47:22.869Z,11.95
2017-09-23T03:48:23.167Z,11.86
2017-09-23T03:49:22.853Z,11.8
2017-09-23T03:50:23.817Z,11.88
2017-09-23T03:51:22.543Z,11.97
2017-09-23T03:52:22.854Z,11.91
2017-09-23T03:53:22.883Z,11.84
2017-09-23T03:54:23.167Z,11.94
2017-09-23T03:55:22.855Z,11.95
2017-09-23T03:56:23.146Z,11.94
2017-09-23T03:57:22.525Z,11.87
2017-09-23T03:58:22.526Z,11.87
2017-09-23T03:59:23.145Z,11.84
2017-09-23T04:00:22.889Z,11.84
2017-09-23T04:01:22.839Z,11.94
2017-09-23T04:02:23.134Z,11.91
2017-09-23T04:03:28.080Z,11.81
2017-09-23T04:04:23.145Z,11.84
2017-09-23T04:05:22.811Z,11.81
2017-09-23T04:06:22.806Z,11.8
2017-09-23T04:07:23.118Z,11.8
2017-09-23T04:08:22.802Z,11.69
2017-09-23T04:09:22.795Z,11.62
2017-09-23T04:10:23.115Z,11.55
2017-09-23T04:11:23.113Z,11.6
2017-09-23T04:12:23.116Z,11.62
2017-09-23T04:13:22.785Z,11.6
2017-09-23T04:14:23.114Z,11.6
2017-09-23T04:15:22.808Z,11.59
2017-09-23T04:16:22.787Z,11.65
2017-09-23T04:17:22.776Z,11.57
2017-09-23T04:18:23.085Z,11.63
2017-09-23T04:19:23.075Z,11.55
2017-09-23T04:20:23.077Z,11.52
2017-09-23T04:21:23.071Z,11.45
2017-09-23T04:22:22.760Z,11.41
2017-09-23T04:23:23.074Z,11.44
2017-09-23T04:24:23.059Z,11.36
2017-09-23T04:25:22.763Z,11.43
2017-09-23T04:26:22.745Z,11.45
2017-09-23T04:27:23.051Z,11.44
2017-09-23T04:28:23.052Z,11.43
2017-09-23T04:29:23.046Z,11.36
2017-09-23T04:30:23.043Z,11.35
2017-09-23T04:31:22.729Z,11.41
2017-09-23T04:32:23.034Z,11.4
2017-09-23T04:33:23.036Z,11.44
2017-09-23T04:34:23.029Z,11.4
2017-09-23T04:35:22.729Z,11.41
2017-09-23T04:36:23.020Z,11.44
2017-09-23T04:37:22.715Z,11.51
2017-09-23T04:38:22.725Z,11.59
2017-09-23T04:39:23.013Z,11.51
2017-09-23T04:40:22.781Z,11.6
2017-09-23T04:41:22.707Z,11.72
2017-09-23T04:42:23.006Z,11.68
2017-09-23T04:43:23.005Z,11.68
2017-09-23T04:44:23.000Z,11.69
2017-09-23T04:45:22.997Z,11.59
2017-09-23T04:46:22.688Z,11.66
2017-09-23T04:47:22.676Z,11.69
2017-09-23T04:48:22.672Z,11.73
2017-09-23T04:49:22.979Z,11.78
2017-09-23T04:50:22.357Z,11.66
2017-09-23T04:51:22.354Z,11.77
2017-09-23T04:52:22.975Z,11.73
2017-09-23T04:53:22.660Z,11.8
2017-09-23T04:54:22.970Z,11.86
2017-09-23T04:55:22.657Z,11.86
2017-09-23T04:56:22.960Z,11.83
2017-09-23T04:57:22.342Z,11.88
2017-09-23T04:58:22.951Z,11.87
2017-09-23T04:59:22.950Z,11.95
2017-09-23T05:00:23.005Z,11.97
2017-09-23T05:01:22.635Z,12.03
2017-09-23T05:02:22.944Z,11.99
2017-09-23T05:03:22.948Z,12
2017-09-23T05:04:22.624Z,12
2017-09-23T05:05:22.928Z,12.03
2017-09-23T05:06:22.308Z,12.12
2017-09-23T05:07:22.615Z,12
2017-09-23T05:08:22.930Z,11.99
2017-09-23T05:09:22.926Z,12
2017-09-23T05:10:22.617Z,12.09
2017-09-23T05:11:22.605Z,12.15
2017-09-23T05:12:22.602Z,12.07
2017-09-23T05:13:22.600Z,12.06
2017-09-23T05:14:22.597Z,12.15
2017-09-23T05:15:22.598Z,12.04
2017-09-23T05:16:22.589Z,12.02
2017-09-23T05:17:22.585Z,11.99
2017-09-23T05:18:22.900Z,12.1
2017-09-23T05:19:22.895Z,12.04
2017-09-23T05:20:22.894Z,12.09
2017-09-23T05:21:22.893Z,12.09
2017-09-23T05:22:22.889Z,12
2017-09-23T05:23:22.572Z,12.04
2017-09-23T05:24:22.583Z,12.04
2017-09-23T05:25:22.591Z,12.06
2017-09-23T05:26:22.873Z,12.07
2017-09-23T05:27:22.871Z,12.03
2017-09-23T05:28:22.581Z,12.09
2017-09-23T05:29:22.868Z,12.06
2017-09-23T05:30:22.605Z,12.07
2017-09-23T05:31:22.866Z,12.06
2017-09-23T05:32:22.863Z,12.07
2017-09-23T05:33:22.864Z,12.12
2017-09-23T05:34:24.741Z,12.15
2017-09-23T05:35:22.552Z,12.15
2017-09-23T05:36:22.862Z,12.18
2017-09-23T05:37:22.845Z,12.22
2017-09-23T05:38:22.536Z,12.27
2017-09-23T05:39:22.850Z,12.21
2017-09-23T05:40:22.843Z,12.27
2017-09-23T05:41:22.839Z,12.15
2017-09-23T05:42:22.532Z,12.24
2017-09-23T05:43:22.839Z,12.22
2017-09-23T05:44:22.533Z,12.32
2017-09-23T05:45:22.825Z,12.37
2017-09-23T05:46:22.522Z,12.37
2017-09-23T05:47:22.517Z,12.35
2017-09-23T05:48:22.529Z,12.35
2017-09-23T05:49:22.518Z,12.36
2017-09-23T05:50:22.257Z,12.4
2017-09-23T05:51:22.519Z,12.42
2017-09-23T05:52:22.517Z,12.49
2017-09-23T05:53:22.512Z,12.55
2017-09-23T05:54:22.503Z,12.46
2017-09-23T05:55:22.868Z,12.47
2017-09-23T05:56:22.502Z,12.53
2017-09-23T05:57:22.194Z,12.57
2017-09-23T05:58:22.810Z,12.53
2017-09-23T05:59:22.798Z,12.55
2017-09-23T06:00:22.486Z,12.65
2017-09-23T06:01:22.486Z,12.7
2017-09-23T06:02:22.791Z,12.67
2017-09-23T06:03:22.483Z,12.72
2017-09-23T06:04:23.241Z,12.75
2017-09-23T06:05:22.488Z,12.64
2017-09-23T06:06:22.471Z,12.65
2017-09-23T06:07:22.787Z,12.7
2017-09-23T06:08:22.468Z,12.68
2017-09-23T06:09:22.775Z,12.73
2017-09-23T06:10:22.781Z,12.78
2017-09-23T06:11:22.781Z,12.65
2017-09-23T06:12:22.773Z,12.6
2017-09-23T06:13:22.773Z,12.72
2017-09-23T06:14:22.455Z,12.65
2017-09-23T06:15:22.545Z,12.75
2017-09-23T06:16:22.764Z,12.8
2017-09-23T06:17:22.454Z,12.83
2017-09-23T06:18:22.450Z,12.82
2017-09-23T06:19:22.143Z,12.79
2017-09-23T06:20:22.762Z,12.86
2017-09-23T06:21:22.463Z,12.94
2017-09-23T06:22:22.442Z,12.98
2017-09-23T06:23:22.752Z,12.98
2017-09-23T06:24:22.436Z,13.12
2017-09-23T06:25:22.437Z,13.2
2017-09-23T06:26:22.433Z,13.23
2017-09-23T06:27:22.126Z,13.31
2017-09-23T06:28:22.742Z,13.38
2017-09-23T06:29:22.736Z,13.42
2017-09-23T06:30:22.432Z,13.44
2017-09-23T06:31:22.736Z,13.49
2017-09-23T06:32:22.119Z,13.52
2017-09-23T06:33:22.425Z,13.47
2017-09-23T06:34:22.733Z,13.46
2017-09-23T06:35:22.124Z,13.47
2017-09-23T06:36:22.729Z,13.49
2017-09-23T06:37:22.734Z,13.52
2017-09-23T06:38:22.414Z,13.57
2017-09-23T06:39:22.731Z,13.5
2017-09-23T06:40:22.512Z,13.41
2017-09-23T06:41:22.727Z,13.35
2017-09-23T06:42:22.726Z,13.25
2017-09-23T06:43:22.724Z,13.3
2017-09-23T06:44:22.422Z,13.35
2017-09-23T06:45:22.161Z,13.39
2017-09-23T06:46:22.718Z,13.38
2017-09-23T06:47:22.415Z,13.42
2017-09-23T06:48:22.405Z,13.47
2017-09-23T06:49:22.403Z,13.53
2017-09-23T06:50:22.913Z,13.67
2017-09-23T06:51:22.404Z,13.79
2017-09-23T06:52:22.721Z,13.95
2017-09-23T06:53:22.407Z,14.05
2017-09-23T06:54:22.406Z,14.07
2017-09-23T06:55:22.439Z,14.35
2017-09-23T06:56:22.408Z,14.59
2017-09-23T06:57:22.718Z,14.99
2017-09-23T06:58:22.720Z,15.35
2017-09-23T06:59:22.395Z,15.76
2017-09-23T07:00:22.410Z,16.13
2017-09-23T07:01:22.397Z,16.35
2017-09-23T07:02:22.708Z,16.61
2017-09-23T07:03:22.408Z,16.81
2017-09-23T07:04:22.715Z,17.05
2017-09-23T07:05:25.973Z,17.33
2017-09-23T07:06:22.092Z,17.59
2017-09-23T07:07:22.403Z,17.79
2017-09-23T07:08:22.725Z,18.03
2017-09-23T07:09:22.719Z,18.2
2017-09-23T07:10:22.438Z,18.47
2017-09-23T07:11:22.415Z,18.55
2017-09-23T07:12:22.725Z,18.59
2017-09-23T07:13:22.723Z,18.56
2017-09-23T07:14:22.736Z,18.74
2017-09-23T07:15:22.172Z,18.84
2017-09-23T07:16:22.728Z,18.93
2017-09-23T07:17:22.738Z,18.95
2017-09-23T07:18:22.734Z,18.7
2017-09-23T07:19:22.738Z,18.6
2017-09-23T07:20:22.766Z,18.63
2017-09-23T07:21:22.751Z,18.65
2017-09-23T07:22:22.441Z,18.83
2017-09-23T07:23:22.750Z,19.07
2017-09-23T07:24:22.444Z,19.21
2017-09-23T07:25:22.769Z,19.27
2017-09-23T07:26:22.455Z,19.49
2017-09-23T07:27:22.452Z,19.81
2017-09-23T07:28:22.767Z,19.84
2017-09-23T07:29:22.768Z,20.06
2017-09-23T07:30:22.157Z,20.21
2017-09-23T07:31:22.773Z,20.31
2017-09-23T07:32:22.784Z,20.19
2017-09-23T07:33:22.800Z,20.36
2017-09-23T07:34:22.488Z,20.32
2017-09-23T07:35:22.798Z,20.36
2017-09-23T07:36:22.794Z,20.13
2017-09-23T07:37:22.801Z,20
2017-09-23T07:38:22.495Z,19.7
2017-09-23T07:39:22.508Z,19.82
2017-09-23T07:40:22.567Z,19.7
2017-09-23T07:41:22.831Z,19.26
2017-09-23T07:42:22.821Z,18.99
2017-09-23T07:43:22.824Z,19.14
2017-09-23T07:44:22.834Z,19.18
2017-09-23T07:45:22.526Z,19.21
2017-09-23T07:46:22.837Z,19.37
2017-09-23T07:47:22.846Z,19.74
2017-09-23T07:48:22.230Z,20.02
2017-09-23T07:49:22.547Z,20.31
2017-09-23T07:50:22.860Z,20.55
2017-09-23T07:51:22.853Z,20.87
2017-09-23T07:52:22.867Z,21.03
2017-09-23T07:53:22.246Z,21.02
2017-09-23T07:54:22.871Z,20.92
2017-09-23T07:55:22.297Z,20.69
2017-09-23T07:56:22.585Z,20.66
2017-09-23T07:57:22.882Z,20.55
2017-09-23T07:58:22.582Z,20.16
2017-09-23T07:59:22.594Z,20.18
2017-09-23T08:00:22.597Z,20.19
2017-09-23T08:01:22.287Z,20.34
2017-09-23T08:02:22.288Z,20.62
2017-09-23T08:03:22.597Z,20.52
2017-09-23T08:04:22.291Z,20.37
2017-09-23T08:05:22.923Z,20.07
2017-09-23T08:06:24.026Z,20.03
2017-09-23T08:07:22.616Z,20.34
2017-09-23T08:08:22.643Z,20.56
2017-09-23T08:09:22.949Z,20.85
2017-09-23T08:10:23.014Z,20.82
2017-09-23T08:11:22.648Z,20.65
2017-09-23T08:12:22.940Z,20.25
2017-09-23T08:13:22.957Z,19.77
2017-09-23T08:14:22.957Z,19.4
2017-09-23T08:15:22.961Z,19.16
2017-09-23T08:16:22.665Z,19.02
2017-09-23T08:17:22.356Z,18.84
2017-09-23T08:18:22.971Z,18.58
2017-09-23T08:19:22.971Z,18.41
2017-09-23T08:20:23.067Z,18.25
2017-09-23T08:21:23.933Z,18.13
2017-09-23T08:22:22.992Z,17.97
2017-09-23T08:23:22.680Z,17.97
2017-09-23T08:24:22.685Z,17.82
2017-09-23T08:25:22.412Z,17.72
2017-09-23T08:26:22.996Z,17.65
2017-09-23T08:27:22.692Z,17.54
2017-09-23T08:28:23.006Z,17.34
2017-09-23T08:29:22.699Z,17.3
2017-09-23T08:30:22.703Z,17.11
2017-09-23T08:31:23.019Z,17.12
2017-09-23T08:32:22.716Z,17.15
2017-09-23T08:33:22.726Z,17.22
2017-09-23T08:34:23.028Z,17.34
2017-09-23T08:35:22.806Z,17.36
2017-09-23T08:36:25.377Z,17.3
2017-09-23T08:37:23.030Z,17.31
2017-09-23T08:38:23.030Z,17.36
2017-09-23T08:39:22.725Z,17.38
2017-09-23T08:40:23.033Z,17.49
2017-09-23T08:41:22.724Z,17.57
2017-09-23T08:42:23.038Z,17.65
2017-09-23T08:43:23.036Z,17.85
2017-09-23T08:44:23.042Z,17.9
2017-09-23T08:45:23.044Z,18.16
2017-09-23T08:46:22.734Z,18.29
2017-09-23T08:47:23.043Z,18.52
2017-09-23T08:48:23.057Z,18.66
2017-09-23T08:49:22.743Z,18.99
2017-09-23T08:50:22.741Z,19.07
2017-09-23T08:51:23.059Z,19.11
2017-09-23T08:52:22.749Z,19.21
2017-09-23T08:53:23.063Z,19.31
2017-09-23T08:54:23.060Z,19.29
2017-09-23T08:55:22.807Z,19.31
2017-09-23T08:56:22.759Z,19.49
2017-09-23T08:57:22.762Z,19.62
2017-09-23T08:58:23.082Z,19.71
2017-09-23T08:59:23.079Z,19.7
2017-09-23T09:00:22.775Z,19.74
2017-09-23T09:01:22.470Z,19.67
2017-09-23T09:02:22.776Z,19.62
2017-09-23T09:03:23.098Z,19.59
2017-09-23T09:04:22.782Z,19.49
2017-09-23T09:05:23.175Z,19.49
2017-09-23T09:06:22.487Z,19.48
2017-09-23T09:07:22.795Z,19.55
2017-09-23T09:08:22.798Z,19.37
2017-09-23T09:09:22.796Z,19.34
2017-09-23T09:10:22.800Z,19.24
2017-09-23T09:11:23.120Z,19.24
2017-09-23T09:12:22.806Z,19.12
2017-09-23T09:13:23.146Z,19.14
2017-09-23T09:14:23.129Z,19.14
2017-09-23T09:15:23.128Z,18.99
2017-09-23T09:16:23.140Z,18.99
2017-09-23T09:17:22.814Z,18.86
2017-09-23T09:18:23.136Z,18.8
2017-09-23T09:19:23.144Z,18.83
2017-09-23T09:20:22.847Z,18.68
2017-09-23T09:21:23.138Z,18.66
2017-09-23T09:22:22.832Z,18.66
2017-09-23T09:23:22.523Z,18.6
2017-09-23T09:24:22.839Z,18.58
2017-09-23T09:25:23.193Z,18.45
2017-09-23T09:26:22.860Z,18.43
2017-09-23T09:27:22.568Z,18.28
2017-09-23T09:28:22.850Z,18.23
2017-09-23T09:29:23.174Z,18.18
2017-09-23T09:30:22.873Z,18.01
2017-09-23T09:31:22.867Z,17.87
2017-09-23T09:32:22.859Z,17.89
2017-09-23T09:33:23.166Z,17.94
2017-09-23T09:34:23.177Z,17.97
2017-09-23T09:35:22.866Z,17.95
2017-09-23T09:36:22.878Z,18.03
2017-09-23T09:37:23.115Z,18.05
2017-09-23T09:38:22.866Z,18.13
2017-09-23T09:39:22.575Z,18.08
2017-09-23T09:40:22.904Z,18.08
2017-09-23T09:41:22.560Z,18.22
2017-09-23T09:42:23.185Z,18.26
2017-09-23T09:43:22.566Z,18.35
2017-09-23T09:44:22.883Z,18.41
2017-09-23T09:45:22.917Z,18.63
2017-09-23T09:46:23.199Z,18.65
2017-09-23T09:47:22.889Z,18.83
2017-09-23T09:48:22.578Z,18.96
2017-09-23T09:49:22.580Z,19.07
2017-09-23T09:50:22.894Z,19.11
2017-09-23T09:51:22.896Z,19.09
2017-09-23T09:52:24.699Z,19.16
2017-09-23T09:53:22.913Z,19.16
2017-09-23T09:54:22.594Z,19.27
2017-09-23T09:55:22.935Z,19.29
2017-09-23T09:56:23.218Z,19.36
2017-09-23T09:57:23.220Z,19.33
2017-09-23T09:58:22.914Z,19.34
2017-09-23T09:59:22.602Z,19.45
2017-09-23T10:00:22.919Z,19.58
2017-09-23T10:01:23.231Z,19.56
2017-09-23T10:02:23.228Z,19.58
2017-09-23T10:03:23.376Z,19.7
2017-09-23T10:04:22.951Z,19.84
2017-09-23T10:05:23.238Z,19.81
2017-09-23T10:06:22.619Z,19.81
2017-09-23T10:07:23.432Z,19.84
2017-09-23T10:08:23.248Z,19.81
2017-09-23T10:09:22.938Z,19.81
2017-09-23T10:10:23.327Z,19.79
2017-09-23T10:11:22.940Z,19.95
2017-09-23T10:12:22.646Z,20.02
2017-09-23T10:13:22.958Z,20.28
2017-09-23T10:14:22.952Z,20.26
2017-09-23T10:15:22.953Z,20.29
2017-09-23T10:16:23.264Z,20.37
2017-09-23T10:17:23.269Z,20.36
2017-09-23T10:18:23.269Z,20.34
2017-09-23T10:19:22.659Z,20.36
2017-09-23T10:20:23.307Z,20.32
2017-09-23T10:21:22.986Z,20.37
2017-09-23T10:22:23.460Z,20.34
2017-09-23T10:23:22.973Z,20.26
2017-09-23T10:24:23.045Z,19.99
2017-09-23T10:25:22.717Z,19.84
2017-09-23T10:26:23.299Z,19.7
2017-09-23T10:27:23.309Z,19.51
2017-09-23T10:28:22.990Z,19.48
2017-09-23T10:29:22.989Z,19.4
2017-09-23T10:30:23.008Z,19.48
2017-09-23T10:31:23.310Z,19.49
2017-09-23T10:32:23.309Z,19.48
2017-09-23T10:33:23.314Z,19.51
2017-09-23T10:34:23.315Z,19.44
2017-09-23T10:35:23.006Z,19.29
2017-09-23T10:36:23.021Z,19.29
2017-09-23T10:37:23.344Z,19.26
2017-09-23T10:38:23.352Z,19.21
2017-09-23T10:39:23.023Z,19.37
2017-09-23T10:40:23.339Z,19.34
2017-09-23T10:41:23.327Z,19.34
2017-09-23T10:42:23.341Z,19.31
2017-09-23T10:43:23.340Z,19.4
2017-09-23T10:44:22.721Z,19.41
2017-09-23T10:45:23.026Z,19.48
2017-09-23T10:46:23.369Z,19.55
2017-09-23T10:47:23.349Z,19.47
2017-09-23T10:48:23.366Z,19.48
2017-09-23T10:49:23.079Z,19.51
2017-09-23T10:50:23.369Z,19.49
2017-09-23T10:51:22.743Z,19.52
2017-09-23T10:52:22.742Z,19.7
2017-09-23T10:53:23.369Z,19.85
2017-09-23T10:54:22.749Z,19.84
2017-09-23T10:55:22.753Z,19.95
2017-09-23T10:56:23.374Z,20.03
2017-09-23T10:57:23.373Z,20.22
2017-09-23T10:58:23.069Z,20.34
2017-09-23T10:59:23.076Z,20.24
2017-09-23T11:00:23.404Z,20.28
2017-09-23T11:01:23.067Z,20.28
2017-09-23T11:02:23.069Z,20.24
2017-09-23T11:03:22.763Z,20.14
2017-09-23T11:04:23.081Z,20.02
2017-09-23T11:05:23.091Z,19.94
2017-09-23T11:06:23.088Z,19.92
2017-09-23T11:07:23.451Z,19.92
2017-09-23T11:08:23.093Z,19.89
2017-09-23T11:09:23.087Z,19.95
2017-09-23T11:10:23.099Z,19.96
2017-09-23T11:11:23.425Z,19.88
2017-09-23T11:12:23.423Z,19.82
2017-09-23T11:13:23.425Z,19.81
2017-09-23T11:14:23.425Z,19.84
2017-09-23T11:15:22.885Z,19.81
2017-09-23T11:16:23.122Z,19.86
2017-09-23T11:17:23.108Z,19.89
2017-09-23T11:18:22.810Z,19.85
2017-09-23T11:19:23.130Z,19.91
2017-09-23T11:20:22.815Z,19.85
2017-09-23T11:21:23.117Z,19.82
2017-09-23T11:22:22.810Z,19.81
2017-09-23T11:23:26.563Z,19.84
2017-09-23T11:24:23.133Z,19.79
2017-09-23T11:25:23.132Z,19.82
2017-09-23T11:26:23.146Z,19.92
2017-09-23T11:27:23.147Z,20.11
2017-09-23T11:28:23.163Z,20.06
2017-09-23T11:29:23.446Z,20.1
2017-09-23T11:30:23.144Z,20.09
2017-09-23T11:31:22.840Z,20.06
2017-09-23T11:32:22.838Z,20.07
2017-09-23T11:33:23.151Z,20.03
2017-09-23T11:34:22.878Z,19.99
2017-09-23T11:35:23.213Z,20.14
2017-09-23T11:36:23.472Z,20.19
2017-09-23T11:37:23.493Z,20.16
2017-09-23T11:38:25.559Z,20.1
2017-09-23T11:39:22.853Z,20.02
2017-09-23T11:40:23.337Z,20.04
2017-09-23T11:41:23.171Z,20.04
2017-09-23T11:42:23.556Z,20.24
2017-09-23T11:43:22.863Z,20.29
2017-09-23T11:44:23.502Z,20.41
2017-09-23T11:45:23.215Z,20.31
2017-09-23T11:46:23.184Z,20.22
2017-09-23T11:47:23.185Z,20.13
2017-09-23T11:48:22.878Z,20.19
2017-09-23T11:49:23.188Z,20.22
2017-09-23T11:50:23.224Z,20.34
2017-09-23T11:51:23.193Z,20.43
2017-09-23T11:52:23.204Z,20.6
2017-09-23T11:53:23.206Z,20.66
2017-09-23T11:54:23.512Z,20.67
2017-09-23T11:55:23.517Z,20.88
2017-09-23T11:56:23.215Z,20.9
2017-09-23T11:57:23.211Z,20.99
2017-09-23T11:58:23.522Z,20.99
2017-09-23T11:59:23.218Z,21.09
2017-09-23T12:00:23.227Z,21.09
2017-09-23T12:01:23.228Z,21.03
2017-09-23T12:02:23.230Z,20.93
2017-09-23T12:03:23.559Z,20.95
2017-09-23T12:04:22.930Z,20.92
2017-09-23T12:05:23.234Z,20.75
2017-09-23T12:06:23.240Z,20.75
2017-09-23T12:07:23.571Z,20.72
2017-09-23T12:08:23.554Z,20.78
2017-09-23T12:09:23.251Z,20.88
2017-09-23T12:10:23.579Z,20.95
2017-09-23T12:11:23.255Z,20.87
2017-09-23T12:12:23.289Z,20.88
2017-09-23T12:13:23.574Z,20.96
2017-09-23T12:14:23.268Z,20.81
2017-09-23T12:15:23.268Z,20.81
2017-09-23T12:16:23.266Z,20.67
2017-09-23T12:17:23.576Z,20.72
2017-09-23T12:18:23.585Z,20.65
2017-09-23T12:19:23.581Z,20.59
2017-09-23T12:20:23.280Z,20.62
2017-09-23T12:21:23.285Z,20.63
2017-09-23T12:22:23.630Z,20.51
2017-09-23T12:23:23.288Z,20.58
2017-09-23T12:24:25.205Z,20.56
2017-09-23T12:25:23.295Z,20.55
2017-09-23T12:26:23.595Z,20.55
2017-09-23T12:27:23.637Z,20.48
2017-09-23T12:28:23.611Z,20.37
2017-09-23T12:29:23.313Z,20.48
2017-09-23T12:30:23.357Z,20.56
2017-09-23T12:31:22.999Z,20.65
2017-09-23T12:32:23.621Z,20.66
2017-09-23T12:33:23.624Z,20.77
2017-09-23T12:34:23.010Z,20.87
2017-09-23T12:35:23.647Z,20.85
2017-09-23T12:36:23.013Z,20.82
2017-09-23T12:37:23.632Z,20.95
2017-09-23T12:38:23.333Z,20.93
2017-09-23T12:39:24.650Z,21.05
2017-09-23T12:40:23.079Z,21.05
2017-09-23T12:41:23.354Z,20.99
2017-09-23T12:42:23.652Z,21.02
2017-09-23T12:43:23.367Z,20.99
2017-09-23T12:44:23.349Z,20.87
2017-09-23T12:45:23.365Z,20.9
2017-09-23T12:46:23.364Z,20.75
2017-09-23T12:47:23.369Z,20.66
2017-09-23T12:48:23.374Z,20.67
2017-09-23T12:49:23.060Z,20.65
2017-09-23T12:50:23.405Z,20.59
2017-09-23T12:51:23.368Z,20.47
2017-09-23T12:52:23.680Z,20.55
2017-09-23T12:53:23.385Z,20.58
2017-09-23T12:54:23.684Z,20.59
2017-09-23T12:55:23.471Z,20.52
2017-09-23T12:56:23.687Z,20.6